sensor_id;sensor_type;location;lat;lon;timestamp;P1;durP1;ratioP1;P2;durP2;ratioP2
62654;SDS011;48717;55.556;37.816;2023-04-03T00:01:20;11.68;;;7.45;;
62654;SDS011;48717;55.556;37.816;2023-04-03T00:03:53;12.60;;;7.53;;
62654;SDS011;48717;55.556;37.816;2023-04-03T00:06:21;16.13;;;8.15;;
62654;SDS011;48717;55.556;37.816;2023-04-03T00:08:50;10.85;;;7.13;;
62654;SDS011;48717;55.556;37.816;2023-04-03T00:11:18;17.40;;;7.53;;
62654;SDS011;48717;55.556;37.816;2023-04-03T00:13:45;14.23;;;8.27;;
62654;SDS011;48717;55.556;37.816;2023-04-03T00:16:12;14.38;;;8.13;;
62654;SDS011;48717;55.556;37.816;2023-04-03T00:18:39;12.25;;;8.30;;
62654;SDS011;48717;55.556;37.816;2023-04-03T00:21:06;13.45;;;7.75;;
62654;SDS011;48717;55.556;37.816;2023-04-03T00:23:36;13.98;;;8.38;;
62654;SDS011;48717;55.556;37.816;2023-04-03T00:26:03;15.15;;;8.00;;
62654;SDS011;48717;55.556;37.816;2023-04-03T00:28:30;14.95;;;8.77;;
62654;SDS011;48717;55.556;37.816;2023-04-03T00:30:58;14.80;;;8.60;;
62654;SDS011;48717;55.556;37.816;2023-04-03T00:33:25;14.23;;;8.75;;
62654;SDS011;48717;55.556;37.816;2023-04-03T00:35:52;17.20;;;8.77;;
62654;SDS011;48717;55.556;37.816;2023-04-03T00:38:19;13.02;;;7.93;;
62654;SDS011;48717;55.556;37.816;2023-04-03T00:40:47;14.02;;;8.27;;
62654;SDS011;48717;55.556;37.816;2023-04-03T00:43:23;12.50;;;7.88;;
62654;SDS011;48717;55.556;37.816;2023-04-03T00:45:56;15.48;;;8.40;;
62654;SDS011;48717;55.556;37.816;2023-04-03T00:49:07;14.43;;;8.10;;
62654;SDS011;48717;55.556;37.816;2023-04-03T00:51:23;15.30;;;8.00;;
62654;SDS011;48717;55.556;37.816;2023-04-03T00:54:00;14.50;;;8.35;;
62654;SDS011;48717;55.556;37.816;2023-04-03T00:56:31;20.85;;;8.77;;
62654;SDS011;48717;55.556;37.816;2023-04-03T00:59:01;20.88;;;11.77;;
62654;SDS011;48717;55.556;37.816;2023-04-03T01:01:37;16.60;;;8.38;;
62654;SDS011;48717;55.556;37.816;2023-04-03T01:04:05;17.02;;;8.02;;
62654;SDS011;48717;55.556;37.816;2023-04-03T01:06:34;14.57;;;7.97;;
62654;SDS011;48717;55.556;37.816;2023-04-03T01:09:06;17.77;;;9.45;;
62654;SDS011;48717;55.556;37.816;2023-04-03T01:11:33;14.55;;;8.77;;
62654;SDS011;48717;55.556;37.816;2023-04-03T01:14:01;13.50;;;8.27;;
62654;SDS011;48717;55.556;37.816;2023-04-03T01:16:29;12.07;;;7.95;;
62654;SDS011;48717;55.556;37.816;2023-04-03T01:18:59;15.98;;;8.23;;
62654;SDS011;48717;55.556;37.816;2023-04-03T01:26:44;14.20;;;7.28;;
62654;SDS011;48717;55.556;37.816;2023-04-03T01:29:13;14.07;;;7.75;;
62654;SDS011;48717;55.556;37.816;2023-04-03T01:31:48;12.52;;;7.75;;
62654;SDS011;48717;55.556;37.816;2023-04-03T01:34:20;15.75;;;8.27;;
62654;SDS011;48717;55.556;37.816;2023-04-03T01:36:49;15.95;;;8.27;;
62654;SDS011;48717;55.556;37.816;2023-04-03T01:39:17;13.02;;;7.97;;
62654;SDS011;48717;55.556;37.816;2023-04-03T01:41:44;13.15;;;7.40;;
62654;SDS011;48717;55.556;37.816;2023-04-03T01:44:27;16.92;;;8.20;;
62654;SDS011;48717;55.556;37.816;2023-04-03T01:46:54;15.15;;;8.15;;
62654;SDS011;48717;55.556;37.816;2023-04-03T01:49:23;14.10;;;7.50;;
62654;SDS011;48717;55.556;37.816;2023-04-03T01:51:50;15.63;;;8.07;;
62654;SDS011;48717;55.556;37.816;2023-04-03T01:54:17;16.70;;;9.25;;
62654;SDS011;48717;55.556;37.816;2023-04-03T01:56:44;13.93;;;8.23;;
62654;SDS011;48717;55.556;37.816;2023-04-03T01:59:12;16.52;;;9.70;;
62654;SDS011;48717;55.556;37.816;2023-04-03T02:01:39;15.07;;;9.45;;
62654;SDS011;48717;55.556;37.816;2023-04-03T02:04:07;15.93;;;9.00;;
62654;SDS011;48717;55.556;37.816;2023-04-03T02:06:34;15.35;;;8.63;;
62654;SDS011;48717;55.556;37.816;2023-04-03T02:09:02;18.10;;;9.52;;
62654;SDS011;48717;55.556;37.816;2023-04-03T02:11:29;16.42;;;9.00;;
62654;SDS011;48717;55.556;37.816;2023-04-03T02:13:57;14.00;;;8.43;;
62654;SDS011;48717;55.556;37.816;2023-04-03T02:16:24;15.43;;;8.73;;
62654;SDS011;48717;55.556;37.816;2023-04-03T02:18:51;18.65;;;9.65;;
62654;SDS011;48717;55.556;37.816;2023-04-03T02:21:18;18.50;;;9.50;;
62654;SDS011;48717;55.556;37.816;2023-04-03T02:23:47;18.75;;;10.30;;
62654;SDS011;48717;55.556;37.816;2023-04-03T02:26:15;18.60;;;9.75;;
62654;SDS011;48717;55.556;37.816;2023-04-03T02:28:44;19.85;;;9.60;;
62654;SDS011;48717;55.556;37.816;2023-04-03T02:31:12;17.65;;;9.57;;
62654;SDS011;48717;55.556;37.816;2023-04-03T02:33:41;19.93;;;10.77;;
62654;SDS011;48717;55.556;37.816;2023-04-03T02:36:12;17.15;;;9.05;;
62654;SDS011;48717;55.556;37.816;2023-04-03T02:38:42;19.35;;;9.35;;
62654;SDS011;48717;55.556;37.816;2023-04-03T02:41:10;23.27;;;9.90;;
62654;SDS011;48717;55.556;37.816;2023-04-03T02:43:38;22.00;;;11.68;;
62654;SDS011;48717;55.556;37.816;2023-04-03T02:46:06;25.75;;;12.77;;
62654;SDS011;48717;55.556;37.816;2023-04-03T02:48:34;27.20;;;12.85;;
62654;SDS011;48717;55.556;37.816;2023-04-03T02:51:01;24.90;;;13.25;;
62654;SDS011;48717;55.556;37.816;2023-04-03T02:53:29;23.25;;;12.50;;
62654;SDS011;48717;55.556;37.816;2023-04-03T02:55:57;27.42;;;12.38;;
62654;SDS011;48717;55.556;37.816;2023-04-03T02:58:24;23.67;;;11.90;;
62654;SDS011;48717;55.556;37.816;2023-04-03T03:00:55;20.95;;;11.35;;
62654;SDS011;48717;55.556;37.816;2023-04-03T03:03:24;24.58;;;11.75;;
62654;SDS011;48717;55.556;37.816;2023-04-03T03:06:00;24.48;;;12.25;;
62654;SDS011;48717;55.556;37.816;2023-04-03T03:08:29;31.75;;;13.90;;
62654;SDS011;48717;55.556;37.816;2023-04-03T03:10:57;28.60;;;13.18;;
62654;SDS011;48717;55.556;37.816;2023-04-03T03:13:55;25.60;;;12.65;;
62654;SDS011;48717;55.556;37.816;2023-04-03T03:16:43;24.77;;;11.25;;
62654;SDS011;48717;55.556;37.816;2023-04-03T03:19:10;20.27;;;11.60;;
62654;SDS011;48717;55.556;37.816;2023-04-03T03:21:37;25.95;;;13.45;;
62654;SDS011;48717;55.556;37.816;2023-04-03T03:24:04;21.98;;;12.70;;
62654;SDS011;48717;55.556;37.816;2023-04-03T03:26:32;33.38;;;17.13;;
62654;SDS011;48717;55.556;37.816;2023-04-03T03:29:01;31.73;;;15.63;;
62654;SDS011;48717;55.556;37.816;2023-04-03T03:31:29;36.35;;;21.20;;
62654;SDS011;48717;55.556;37.816;2023-04-03T03:33:56;42.03;;;23.05;;
62654;SDS011;48717;55.556;37.816;2023-04-03T03:36:23;39.05;;;21.88;;
62654;SDS011;48717;55.556;37.816;2023-04-03T03:38:51;39.35;;;20.30;;
62654;SDS011;48717;55.556;37.816;2023-04-03T03:41:18;45.85;;;23.05;;
62654;SDS011;48717;55.556;37.816;2023-04-03T03:43:46;34.75;;;16.92;;
62654;SDS011;48717;55.556;37.816;2023-04-03T03:46:14;29.95;;;16.88;;
62654;SDS011;48717;55.556;37.816;2023-04-03T03:48:41;36.30;;;19.30;;
62654;SDS011;48717;55.556;37.816;2023-04-03T03:51:08;38.08;;;19.85;;
62654;SDS011;48717;55.556;37.816;2023-04-03T03:53:37;39.33;;;18.67;;
62654;SDS011;48717;55.556;37.816;2023-04-03T03:56:08;34.60;;;18.45;;
62654;SDS011;48717;55.556;37.816;2023-04-03T03:58:38;35.55;;;18.08;;
62654;SDS011;48717;55.556;37.816;2023-04-03T04:01:05;34.72;;;18.15;;
62654;SDS011;48717;55.556;37.816;2023-04-03T04:03:39;33.60;;;16.77;;
62654;SDS011;48717;55.556;37.816;2023-04-03T04:06:08;29.88;;;16.77;;
62654;SDS011;48717;55.556;37.816;2023-04-03T04:08:36;30.00;;;14.40;;
62654;SDS011;48717;55.556;37.816;2023-04-03T04:11:06;31.80;;;16.67;;
62654;SDS011;48717;55.556;37.816;2023-04-03T04:13:33;27.67;;;14.52;;
62654;SDS011;48717;55.556;37.816;2023-04-03T04:16:01;26.95;;;14.55;;
62654;SDS011;48717;55.556;37.816;2023-04-03T04:18:29;24.23;;;12.40;;
62654;SDS011;48717;55.556;37.816;2023-04-03T04:20:56;36.47;;;17.73;;
62654;SDS011;48717;55.556;37.816;2023-04-03T04:23:24;37.30;;;17.67;;
62654;SDS011;48717;55.556;37.816;2023-04-03T04:25:52;26.50;;;14.73;;
62654;SDS011;48717;55.556;37.816;2023-04-03T04:28:20;28.15;;;14.30;;
62654;SDS011;48717;55.556;37.816;2023-04-03T04:30:51;25.55;;;11.85;;
62654;SDS011;48717;55.556;37.816;2023-04-03T04:33:20;29.23;;;15.07;;
62654;SDS011;48717;55.556;37.816;2023-04-03T04:35:48;29.63;;;14.18;;
62654;SDS011;48717;55.556;37.816;2023-04-03T04:38:18;33.22;;;16.08;;
62654;SDS011;48717;55.556;37.816;2023-04-03T04:40:47;31.38;;;14.75;;
62654;SDS011;48717;55.556;37.816;2023-04-03T04:43:15;30.30;;;14.48;;
62654;SDS011;48717;55.556;37.816;2023-04-03T04:45:44;32.40;;;16.40;;
62654;SDS011;48717;55.556;37.816;2023-04-03T04:48:11;33.65;;;15.98;;
62654;SDS011;48717;55.556;37.816;2023-04-03T04:50:38;37.33;;;16.17;;
62654;SDS011;48717;55.556;37.816;2023-04-03T04:53:06;32.90;;;15.43;;
62654;SDS011;48717;55.556;37.816;2023-04-03T04:55:33;34.53;;;15.70;;
62654;SDS011;48717;55.556;37.816;2023-04-03T04:58:01;34.50;;;16.23;;
62654;SDS011;48717;55.556;37.816;2023-04-03T05:00:28;34.97;;;15.60;;
62654;SDS011;48717;55.556;37.816;2023-04-03T05:02:56;27.88;;;15.32;;
62654;SDS011;48717;55.556;37.816;2023-04-03T05:05:23;29.00;;;16.05;;
62654;SDS011;48717;55.556;37.816;2023-04-03T05:07:50;32.50;;;17.55;;
62654;SDS011;48717;55.556;37.816;2023-04-03T05:10:17;33.63;;;15.63;;
62654;SDS011;48717;55.556;37.816;2023-04-03T05:12:45;34.50;;;16.48;;
62654;SDS011;48717;55.556;37.816;2023-04-03T05:15:13;31.73;;;15.70;;
62654;SDS011;48717;55.556;37.816;2023-04-03T05:17:41;33.72;;;15.60;;
62654;SDS011;48717;55.556;37.816;2023-04-03T05:20:12;27.23;;;14.27;;
62654;SDS011;48717;55.556;37.816;2023-04-03T05:22:41;26.70;;;13.05;;
62654;SDS011;48717;55.556;37.816;2023-04-03T05:25:09;25.88;;;12.52;;
62654;SDS011;48717;55.556;37.816;2023-04-03T05:27:37;29.05;;;14.02;;
62654;SDS011;48717;55.556;37.816;2023-04-03T05:30:05;28.90;;;13.68;;
62654;SDS011;48717;55.556;37.816;2023-04-03T05:32:34;34.72;;;15.40;;
62654;SDS011;48717;55.556;37.816;2023-04-03T05:35:13;28.30;;;13.40;;
62654;SDS011;48717;55.556;37.816;2023-04-03T05:37:41;28.90;;;13.90;;
62654;SDS011;48717;55.556;37.816;2023-04-03T05:40:10;23.88;;;13.63;;
62654;SDS011;48717;55.556;37.816;2023-04-03T05:42:41;24.98;;;14.52;;
62654;SDS011;48717;55.556;37.816;2023-04-03T05:45:08;29.15;;;13.35;;
62654;SDS011;48717;55.556;37.816;2023-04-03T05:47:35;27.10;;;12.40;;
62654;SDS011;48717;55.556;37.816;2023-04-03T05:50:05;22.97;;;12.40;;
62654;SDS011;48717;55.556;37.816;2023-04-03T05:52:36;25.33;;;12.85;;
62654;SDS011;48717;55.556;37.816;2023-04-03T05:55:04;24.63;;;13.40;;
62654;SDS011;48717;55.556;37.816;2023-04-03T05:57:33;29.48;;;17.73;;
62654;SDS011;48717;55.556;37.816;2023-04-03T06:00:03;25.45;;;11.93;;
62654;SDS011;48717;55.556;37.816;2023-04-03T06:02:39;27.67;;;12.93;;
62654;SDS011;48717;55.556;37.816;2023-04-03T06:07:39;32.05;;;13.10;;
62654;SDS011;48717;55.556;37.816;2023-04-03T06:10:10;23.77;;;12.70;;
62654;SDS011;48717;55.556;37.816;2023-04-03T06:12:39;22.23;;;12.75;;
62654;SDS011;48717;55.556;37.816;2023-04-03T06:15:06;24.42;;;12.07;;
62654;SDS011;48717;55.556;37.816;2023-04-03T06:17:36;27.92;;;11.77;;
62654;SDS011;48717;55.556;37.816;2023-04-03T06:20:04;31.23;;;14.23;;
62654;SDS011;48717;55.556;37.816;2023-04-03T06:22:33;27.48;;;14.68;;
62654;SDS011;48717;55.556;37.816;2023-04-03T06:25:01;28.85;;;14.27;;
62654;SDS011;48717;55.556;37.816;2023-04-03T06:27:28;26.40;;;15.35;;
62654;SDS011;48717;55.556;37.816;2023-04-03T06:29:55;31.55;;;16.10;;
62654;SDS011;48717;55.556;37.816;2023-04-03T06:32:22;32.70;;;14.77;;
62654;SDS011;48717;55.556;37.816;2023-04-03T06:34:49;30.55;;;15.10;;
62654;SDS011;48717;55.556;37.816;2023-04-03T06:37:17;28.00;;;14.82;;
62654;SDS011;48717;55.556;37.816;2023-04-03T06:39:47;25.67;;;14.00;;
62654;SDS011;48717;55.556;37.816;2023-04-03T06:42:14;35.78;;;16.10;;
62654;SDS011;48717;55.556;37.816;2023-04-03T06:44:52;25.30;;;14.18;;
62654;SDS011;48717;55.556;37.816;2023-04-03T06:47:19;29.98;;;14.73;;
62654;SDS011;48717;55.556;37.816;2023-04-03T06:49:46;32.78;;;16.67;;
62654;SDS011;48717;55.556;37.816;2023-04-03T06:52:13;42.97;;;18.48;;
62654;SDS011;48717;55.556;37.816;2023-04-03T06:54:40;33.92;;;17.70;;
62654;SDS011;48717;55.556;37.816;2023-04-03T06:57:08;41.22;;;18.50;;
62654;SDS011;48717;55.556;37.816;2023-04-03T06:59:35;46.45;;;19.15;;
62654;SDS011;48717;55.556;37.816;2023-04-03T07:02:03;43.97;;;19.60;;
62654;SDS011;48717;55.556;37.816;2023-04-03T07:04:30;41.13;;;19.60;;
62654;SDS011;48717;55.556;37.816;2023-04-03T07:06:58;43.80;;;21.23;;
62654;SDS011;48717;55.556;37.816;2023-04-03T07:09:25;40.22;;;20.85;;
62654;SDS011;48717;55.556;37.816;2023-04-03T07:11:52;46.95;;;20.83;;
62654;SDS011;48717;55.556;37.816;2023-04-03T07:14:19;48.03;;;21.50;;
62654;SDS011;48717;55.556;37.816;2023-04-03T07:16:47;31.67;;;18.30;;
62654;SDS011;48717;55.556;37.816;2023-04-03T07:19:14;49.20;;;20.67;;
62654;SDS011;48717;55.556;37.816;2023-04-03T07:21:42;38.55;;;19.50;;
62654;SDS011;48717;55.556;37.816;2023-04-03T07:24:10;39.00;;;19.27;;
62654;SDS011;48717;55.556;37.816;2023-04-03T07:26:42;44.22;;;18.92;;
62654;SDS011;48717;55.556;37.816;2023-04-03T07:29:09;48.97;;;19.88;;
62654;SDS011;48717;55.556;37.816;2023-04-03T07:31:36;46.15;;;18.77;;
62654;SDS011;48717;55.556;37.816;2023-04-03T07:34:05;43.88;;;19.98;;
62654;SDS011;48717;55.556;37.816;2023-04-03T07:36:32;42.75;;;20.63;;
62654;SDS011;48717;55.556;37.816;2023-04-03T07:38:59;35.70;;;20.63;;
62654;SDS011;48717;55.556;37.816;2023-04-03T07:41:27;55.33;;;22.50;;
62654;SDS011;48717;55.556;37.816;2023-04-03T07:43:55;54.83;;;25.38;;
62654;SDS011;48717;55.556;37.816;2023-04-03T07:46:23;43.08;;;23.40;;
62654;SDS011;48717;55.556;37.816;2023-04-03T07:48:50;40.67;;;17.60;;
62654;SDS011;48717;55.556;37.816;2023-04-03T07:51:17;44.50;;;15.88;;
62654;SDS011;48717;55.556;37.816;2023-04-03T07:53:50;45.50;;;18.02;;
62654;SDS011;48717;55.556;37.816;2023-04-03T07:56:17;35.78;;;15.60;;
62654;SDS011;48717;55.556;37.816;2023-04-03T07:58:44;32.05;;;15.20;;
62654;SDS011;48717;55.556;37.816;2023-04-03T08:01:11;29.35;;;14.52;;
62654;SDS011;48717;55.556;37.816;2023-04-03T08:03:39;37.88;;;15.90;;
62654;SDS011;48717;55.556;37.816;2023-04-03T08:06:07;33.42;;;15.80;;
62654;SDS011;48717;55.556;37.816;2023-04-03T08:08:41;37.10;;;17.60;;
62654;SDS011;48717;55.556;37.816;2023-04-03T08:11:09;40.70;;;17.30;;
62654;SDS011;48717;55.556;37.816;2023-04-03T08:13:37;40.70;;;16.98;;
62654;SDS011;48717;55.556;37.816;2023-04-03T08:16:09;40.45;;;17.42;;
62654;SDS011;48717;55.556;37.816;2023-04-03T08:18:39;34.40;;;19.10;;
62654;SDS011;48717;55.556;37.816;2023-04-03T08:21:07;34.85;;;16.33;;
62654;SDS011;48717;55.556;37.816;2023-04-03T08:23:38;32.00;;;16.45;;
62654;SDS011;48717;55.556;37.816;2023-04-03T08:26:12;31.95;;;18.13;;
62654;SDS011;48717;55.556;37.816;2023-04-03T08:28:41;29.02;;;17.10;;
62654;SDS011;48717;55.556;37.816;2023-04-03T08:31:10;31.88;;;17.90;;
62654;SDS011;48717;55.556;37.816;2023-04-03T08:33:40;28.15;;;17.60;;
62654;SDS011;48717;55.556;37.816;2023-04-03T08:36:17;42.55;;;18.50;;
62654;SDS011;48717;55.556;37.816;2023-04-03T08:38:45;32.85;;;16.70;;
62654;SDS011;48717;55.556;37.816;2023-04-03T08:41:20;35.13;;;18.17;;
62654;SDS011;48717;55.556;37.816;2023-04-03T08:44:17;29.52;;;16.73;;
62654;SDS011;48717;55.556;37.816;2023-04-03T08:49:40;30.75;;;16.60;;
62654;SDS011;48717;55.556;37.816;2023-04-03T08:52:19;34.65;;;17.55;;
62654;SDS011;48717;55.556;37.816;2023-04-03T08:54:51;33.55;;;16.92;;
62654;SDS011;48717;55.556;37.816;2023-04-03T08:57:31;41.53;;;16.35;;
62654;SDS011;48717;55.556;37.816;2023-04-03T09:00:07;32.40;;;16.10;;
62654;SDS011;48717;55.556;37.816;2023-04-03T09:02:43;33.00;;;16.80;;
62654;SDS011;48717;55.556;37.816;2023-04-03T09:05:15;39.25;;;17.15;;
62654;SDS011;48717;55.556;37.816;2023-04-03T09:07:50;34.70;;;16.30;;
62654;SDS011;48717;55.556;37.816;2023-04-03T09:10:26;32.95;;;16.25;;
62654;SDS011;48717;55.556;37.816;2023-04-03T09:13:05;31.70;;;16.23;;
62654;SDS011;48717;55.556;37.816;2023-04-03T09:15:38;33.40;;;14.82;;
62654;SDS011;48717;55.556;37.816;2023-04-03T09:18:13;29.48;;;14.63;;
62654;SDS011;48717;55.556;37.816;2023-04-03T09:23:47;25.05;;;13.05;;
62654;SDS011;48717;55.556;37.816;2023-04-03T09:27:04;27.63;;;13.25;;
62654;SDS011;48717;55.556;37.816;2023-04-03T09:29:16;28.77;;;12.73;;
62654;SDS011;48717;55.556;37.816;2023-04-03T09:31:46;25.65;;;13.60;;
62654;SDS011;48717;55.556;37.816;2023-04-03T09:34:23;24.83;;;13.95;;
62654;SDS011;48717;55.556;37.816;2023-04-03T09:36:54;29.35;;;14.02;;
62654;SDS011;48717;55.556;37.816;2023-04-03T09:39:24;22.80;;;13.73;;
62654;SDS011;48717;55.556;37.816;2023-04-03T09:42:03;22.55;;;12.68;;
62654;SDS011;48717;55.556;37.816;2023-04-03T09:44:37;25.60;;;13.43;;
62654;SDS011;48717;55.556;37.816;2023-04-03T09:47:17;25.23;;;14.63;;
62654;SDS011;48717;55.556;37.816;2023-04-03T09:50:08;26.95;;;14.95;;
62654;SDS011;48717;55.556;37.816;2023-04-03T09:52:47;28.08;;;15.23;;
62654;SDS011;48717;55.556;37.816;2023-04-03T09:55:17;30.25;;;15.00;;
62654;SDS011;48717;55.556;37.816;2023-04-03T09:57:45;34.38;;;15.52;;
62654;SDS011;48717;55.556;37.816;2023-04-03T10:00:23;52.20;;;24.85;;
62654;SDS011;48717;55.556;37.816;2023-04-03T10:02:56;47.63;;;24.93;;
62654;SDS011;48717;55.556;37.816;2023-04-03T10:10:41;29.67;;;17.48;;
62654;SDS011;48717;55.556;37.816;2023-04-03T10:13:17;22.10;;;12.50;;
62654;SDS011;48717;55.556;37.816;2023-04-03T10:15:52;27.08;;;14.07;;
62654;SDS011;48717;55.556;37.816;2023-04-03T10:18:45;32.53;;;14.40;;
62654;SDS011;48717;55.556;37.816;2023-04-03T10:21:15;30.48;;;13.77;;
62654;SDS011;48717;55.556;37.816;2023-04-03T10:24:02;27.08;;;12.98;;
62654;SDS011;48717;55.556;37.816;2023-04-03T10:26:46;27.85;;;11.80;;
62654;SDS011;48717;55.556;37.816;2023-04-03T10:29:24;28.55;;;11.38;;
62654;SDS011;48717;55.556;37.816;2023-04-03T10:34:48;20.90;;;10.02;;
62654;SDS011;48717;55.556;37.816;2023-04-03T10:37:34;20.05;;;10.38;;
62654;SDS011;48717;55.556;37.816;2023-04-03T10:42:46;28.50;;;11.20;;
62654;SDS011;48717;55.556;37.816;2023-04-03T10:45:36;18.77;;;9.85;;
62654;SDS011;48717;55.556;37.816;2023-04-03T10:48:36;18.77;;;8.60;;
62654;SDS011;48717;55.556;37.816;2023-04-03T10:56:42;13.18;;;8.18;;
62654;SDS011;48717;55.556;37.816;2023-04-03T11:01:59;12.50;;;7.63;;
62654;SDS011;48717;55.556;37.816;2023-04-03T11:04:33;9.75;;;7.18;;
62654;SDS011;48717;55.556;37.816;2023-04-03T11:07:14;14.05;;;7.78;;
62654;SDS011;48717;55.556;37.816;2023-04-03T11:09:44;11.02;;;7.00;;
62654;SDS011;48717;55.556;37.816;2023-04-03T11:14:50;15.82;;;6.82;;
62654;SDS011;48717;55.556;37.816;2023-04-03T11:22:23;11.30;;;5.93;;
62654;SDS011;48717;55.556;37.816;2023-04-03T11:24:54;9.95;;;5.10;;
62654;SDS011;48717;55.556;37.816;2023-04-03T11:27:25;9.73;;;5.57;;
62654;SDS011;48717;55.556;37.816;2023-04-03T11:29:59;9.18;;;5.70;;
62654;SDS011;48717;55.556;37.816;2023-04-03T11:34:59;11.65;;;6.68;;
62654;SDS011;48717;55.556;37.816;2023-04-03T11:37:37;9.55;;;5.93;;
62654;SDS011;48717;55.556;37.816;2023-04-03T11:40:29;11.35;;;6.57;;
62654;SDS011;48717;55.556;37.816;2023-04-03T11:43:07;16.50;;;6.90;;
62654;SDS011;48717;55.556;37.816;2023-04-03T11:51:01;10.85;;;6.75;;
62654;SDS011;48717;55.556;37.816;2023-04-03T11:53:48;9.57;;;5.57;;
62654;SDS011;48717;55.556;37.816;2023-04-03T12:01:50;17.52;;;5.93;;
62654;SDS011;48717;55.556;37.816;2023-04-03T12:04:19;13.82;;;6.13;;
62654;SDS011;48717;55.556;37.816;2023-04-03T12:11:51;11.07;;;5.78;;
62654;SDS011;48717;55.556;37.816;2023-04-03T12:14:20;15.68;;;6.97;;
62654;SDS011;48717;55.556;37.816;2023-04-03T12:16:52;12.60;;;7.00;;
62654;SDS011;48717;55.556;37.816;2023-04-03T12:19:29;12.27;;;7.32;;
62654;SDS011;48717;55.556;37.816;2023-04-03T12:22:10;14.20;;;6.97;;
62654;SDS011;48717;55.556;37.816;2023-04-03T12:24:43;15.13;;;7.10;;
62654;SDS011;48717;55.556;37.816;2023-04-03T12:40:54;11.35;;;7.22;;
62654;SDS011;48717;55.556;37.816;2023-04-03T12:46:26;14.13;;;6.93;;
62654;SDS011;48717;55.556;37.816;2023-04-03T12:49:01;13.05;;;7.10;;
62654;SDS011;48717;55.556;37.816;2023-04-03T12:51:37;12.15;;;7.32;;
62654;SDS011;48717;55.556;37.816;2023-04-03T12:54:52;11.35;;;6.90;;
62654;SDS011;48717;55.556;37.816;2023-04-03T12:59:54;15.27;;;7.63;;
62654;SDS011;48717;55.556;37.816;2023-04-03T13:02:24;13.60;;;7.90;;
62654;SDS011;48717;55.556;37.816;2023-04-03T13:05:07;14.55;;;7.60;;
62654;SDS011;48717;55.556;37.816;2023-04-03T13:07:41;14.93;;;7.60;;
62654;SDS011;48717;55.556;37.816;2023-04-03T13:10:14;16.63;;;8.07;;
62654;SDS011;48717;55.556;37.816;2023-04-03T13:15:24;15.43;;;7.50;;
62654;SDS011;48717;55.556;37.816;2023-04-03T13:17:59;13.27;;;7.22;;
62654;SDS011;48717;55.556;37.816;2023-04-03T13:20:27;14.13;;;7.95;;
62654;SDS011;48717;55.556;37.816;2023-04-03T13:23:07;18.52;;;8.38;;
62654;SDS011;48717;55.556;37.816;2023-04-03T13:25:40;20.17;;;9.32;;
62654;SDS011;48717;55.556;37.816;2023-04-03T13:28:10;17.30;;;8.45;;
62654;SDS011;48717;55.556;37.816;2023-04-03T13:30:41;15.20;;;8.60;;
62654;SDS011;48717;55.556;37.816;2023-04-03T13:36:39;16.35;;;9.15;;
62654;SDS011;48717;55.556;37.816;2023-04-03T13:41:40;21.58;;;10.23;;
62654;SDS011;48717;55.556;37.816;2023-04-03T13:51:55;24.17;;;10.35;;
62654;SDS011;48717;55.556;37.816;2023-04-03T13:57:15;21.90;;;9.55;;
62654;SDS011;48717;55.556;37.816;2023-04-03T13:59:43;24.60;;;9.93;;
62654;SDS011;48717;55.556;37.816;2023-04-03T14:04:57;29.58;;;10.98;;
62654;SDS011;48717;55.556;37.816;2023-04-03T14:07:29;23.33;;;9.98;;
62654;SDS011;48717;55.556;37.816;2023-04-03T14:09:57;23.05;;;9.25;;
62654;SDS011;48717;55.556;37.816;2023-04-03T14:14:58;15.02;;;7.70;;
62654;SDS011;48717;55.556;37.816;2023-04-03T14:17:29;14.43;;;8.90;;
62654;SDS011;48717;55.556;37.816;2023-04-03T14:19:57;16.65;;;9.02;;
62654;SDS011;48717;55.556;37.816;2023-04-03T14:22:26;15.98;;;8.15;;
62654;SDS011;48717;55.556;37.816;2023-04-03T14:24:57;17.50;;;8.05;;
62654;SDS011;48717;55.556;37.816;2023-04-03T14:27:33;17.48;;;9.20;;
62654;SDS011;48717;55.556;37.816;2023-04-03T14:30:02;12.65;;;8.27;;
62654;SDS011;48717;55.556;37.816;2023-04-03T14:32:33;18.15;;;8.57;;
62654;SDS011;48717;55.556;37.816;2023-04-03T14:35:01;24.08;;;8.75;;
62654;SDS011;48717;55.556;37.816;2023-04-03T14:37:29;23.75;;;8.90;;
62654;SDS011;48717;55.556;37.816;2023-04-03T14:39:58;22.08;;;9.52;;
62654;SDS011;48717;55.556;37.816;2023-04-03T14:44:58;18.80;;;7.88;;
62654;SDS011;48717;55.556;37.816;2023-04-03T14:47:26;15.15;;;8.50;;
62654;SDS011;48717;55.556;37.816;2023-04-03T14:50:01;23.70;;;9.63;;
62654;SDS011;48717;55.556;37.816;2023-04-03T14:52:31;17.25;;;8.52;;
62654;SDS011;48717;55.556;37.816;2023-04-03T14:55:01;18.08;;;9.38;;
62654;SDS011;48717;55.556;37.816;2023-04-03T14:57:29;18.00;;;8.88;;
62654;SDS011;48717;55.556;37.816;2023-04-03T14:59:57;19.58;;;9.40;;
62654;SDS011;48717;55.556;37.816;2023-04-03T15:05:00;30.85;;;10.63;;
62654;SDS011;48717;55.556;37.816;2023-04-03T15:07:33;25.80;;;9.80;;
62654;SDS011;48717;55.556;37.816;2023-04-03T15:10:03;22.02;;;10.02;;
62654;SDS011;48717;55.556;37.816;2023-04-03T15:12:42;24.92;;;10.95;;
62654;SDS011;48717;55.556;37.816;2023-04-03T15:15:10;23.25;;;12.63;;
62654;SDS011;48717;55.556;37.816;2023-04-03T15:17:37;21.20;;;12.05;;
62654;SDS011;48717;55.556;37.816;2023-04-03T15:20:17;21.30;;;11.82;;
62654;SDS011;48717;55.556;37.816;2023-04-03T15:22:46;24.42;;;11.02;;
62654;SDS011;48717;55.556;37.816;2023-04-03T15:25:13;19.98;;;10.60;;
62654;SDS011;48717;55.556;37.816;2023-04-03T15:27:40;20.30;;;11.20;;
62654;SDS011;48717;55.556;37.816;2023-04-03T15:30:11;23.38;;;10.90;;
62654;SDS011;48717;55.556;37.816;2023-04-03T15:32:41;20.25;;;11.13;;
62654;SDS011;48717;55.556;37.816;2023-04-03T15:35:08;24.95;;;11.85;;
62654;SDS011;48717;55.556;37.816;2023-04-03T15:37:36;21.08;;;10.10;;
62654;SDS011;48717;55.556;37.816;2023-04-03T15:40:04;20.25;;;10.00;;
62654;SDS011;48717;55.556;37.816;2023-04-03T15:42:32;24.35;;;10.88;;
62654;SDS011;48717;55.556;37.816;2023-04-03T15:44:59;25.35;;;11.13;;
62654;SDS011;48717;55.556;37.816;2023-04-03T15:47:27;27.15;;;10.85;;
62654;SDS011;48717;55.556;37.816;2023-04-03T15:49:54;19.13;;;11.60;;
62654;SDS011;48717;55.556;37.816;2023-04-03T15:52:22;30.67;;;12.32;;
62654;SDS011;48717;55.556;37.816;2023-04-03T15:54:49;27.17;;;10.93;;
62654;SDS011;48717;55.556;37.816;2023-04-03T15:57:16;23.05;;;9.93;;
62654;SDS011;48717;55.556;37.816;2023-04-03T15:59:44;25.20;;;11.07;;
62654;SDS011;48717;55.556;37.816;2023-04-03T16:02:11;23.02;;;10.25;;
62654;SDS011;48717;55.556;37.816;2023-04-03T16:04:40;19.77;;;9.40;;
62654;SDS011;48717;55.556;37.816;2023-04-03T16:07:07;24.25;;;9.32;;
62654;SDS011;48717;55.556;37.816;2023-04-03T16:09:35;21.30;;;9.73;;
62654;SDS011;48717;55.556;37.816;2023-04-03T16:12:03;20.67;;;8.90;;
62654;SDS011;48717;55.556;37.816;2023-04-03T16:14:30;29.45;;;10.93;;
62654;SDS011;48717;55.556;37.816;2023-04-03T16:16:58;22.58;;;9.32;;
62654;SDS011;48717;55.556;37.816;2023-04-03T16:19:26;22.58;;;9.38;;
62654;SDS011;48717;55.556;37.816;2023-04-03T16:21:54;18.60;;;8.57;;